sensor_id;sensor_type;location;lat;lon;timestamp;pressure;altitude;pressure_sealevel;temperature;humidity
72370;BME280;60343;-32.030;115.880;2023-11-19T00:01:23;101874.53;;;30.07;30.34
72370;BME280;60343;-32.030;115.880;2023-11-19T00:03:58;101873.97;;;30.15;29.47
72370;BME280;60343;-32.030;115.880;2023-11-19T00:06:33;101867.34;;;30.26;29.41
72370;BME280;60343;-32.030;115.880;2023-11-19T00:09:08;101870.06;;;30.56;29.15
72370;BME280;60343;-32.030;115.880;2023-11-19T00:11:44;101870.09;;;30.46;27.75
72370;BME280;60343;-32.030;115.880;2023-11-19T00:14:19;101876.97;;;30.54;28.56
72370;BME280;60343;-32.030;115.880;2023-11-19T00:17:03;101884.34;;;30.84;28.55
72370;BME280;60343;-32.030;115.880;2023-11-19T00:19:38;101878.81;;;30.84;27.45
72370;BME280;60343;-32.030;115.880;2023-11-19T00:22:14;101870.78;;;31.02;27.43
72370;BME280;60343;-32.030;115.880;2023-11-19T00:24:50;101871.22;;;31.25;26.60
72370;BME280;60343;-32.030;115.880;2023-11-19T00:27:25;101873.31;;;31.48;26.13
72370;BME280;60343;-32.030;115.880;2023-11-19T00:30:00;101877.38;;;31.66;26.47
72370;BME280;60343;-32.030;115.880;2023-11-19T00:32:42;101872.69;;;31.56;26.29
72370;BME280;60343;-32.030;115.880;2023-11-19T00:35:17;101866.53;;;31.69;25.71
72370;BME280;60343;-32.030;115.880;2023-11-19T00:37:53;101859.44;;;31.53;25.71
72370;BME280;60343;-32.030;115.880;2023-11-19T00:40:28;101859.31;;;31.73;26.31
72370;BME280;60343;-32.030;115.880;2023-11-19T00:43:04;101866.28;;;32.00;27.05
72370;BME280;60343;-32.030;115.880;2023-11-19T00:45:40;101856.38;;;32.27;26.09
72370;BME280;60343;-32.030;115.880;2023-11-19T00:48:21;101854.50;;;32.47;25.65
72370;BME280;60343;-32.030;115.880;2023-11-19T00:50:57;101859.34;;;32.60;25.77
72370;BME280;60343;-32.030;115.880;2023-11-19T00:53:32;101856.91;;;32.82;24.83
72370;BME280;60343;-32.030;115.880;2023-11-19T00:56:10;101852.88;;;32.93;24.75
72370;BME280;60343;-32.030;115.880;2023-11-19T00:58:47;101858.81;;;33.05;25.00
72370;BME280;60343;-32.030;115.880;2023-11-19T01:01:22;101858.88;;;33.00;24.37
72370;BME280;60343;-32.030;115.880;2023-11-19T01:04:03;101857.38;;;32.89;24.44
72370;BME280;60343;-32.030;115.880;2023-11-19T01:06:38;101851.09;;;33.02;24.72
72370;BME280;60343;-32.030;115.880;2023-11-19T01:09:14;101849.50;;;32.96;23.59
72370;BME280;60343;-32.030;115.880;2023-11-19T01:11:49;101846.72;;;32.96;23.63
72370;BME280;60343;-32.030;115.880;2023-11-19T01:14:24;101840.53;;;33.04;23.87
72370;BME280;60343;-32.030;115.880;2023-11-19T01:16:59;101847.94;;;33.33;23.49
72370;BME280;60343;-32.030;115.880;2023-11-19T01:19:42;101845.53;;;33.45;24.29
72370;BME280;60343;-32.030;115.880;2023-11-19T01:22:18;101841.25;;;33.71;23.25
72370;BME280;60343;-32.030;115.880;2023-11-19T01:24:53;101837.00;;;33.92;23.65
72370;BME280;60343;-32.030;115.880;2023-11-19T01:27:28;101833.13;;;34.07;23.79
72370;BME280;60343;-32.030;115.880;2023-11-19T01:30:04;101828.84;;;34.15;24.51
72370;BME280;60343;-32.030;115.880;2023-11-19T01:32:40;101830.34;;;34.07;23.28
72370;BME280;60343;-32.030;115.880;2023-11-19T01:35:21;101830.97;;;34.04;23.19
72370;BME280;60343;-32.030;115.880;2023-11-19T01:37:57;101830.34;;;33.56;23.49
72370;BME280;60343;-32.030;115.880;2023-11-19T01:40:32;101823.75;;;33.52;24.17
72370;BME280;60343;-32.030;115.880;2023-11-19T01:43:07;101826.81;;;33.50;24.66
72370;BME280;60343;-32.030;115.880;2023-11-19T01:45:43;101819.88;;;33.85;25.70
72370;BME280;60343;-32.030;115.880;2023-11-19T01:48:18;101826.34;;;33.99;25.38
72370;BME280;60343;-32.030;115.880;2023-11-19T01:50:59;101821.88;;;34.31;24.74
72370;BME280;60343;-32.030;115.880;2023-11-19T01:53:36;101826.44;;;34.54;24.98
72370;BME280;60343;-32.030;115.880;2023-11-19T01:56:14;101820.97;;;34.63;24.37
72370;BME280;60343;-32.030;115.880;2023-11-19T01:58:50;101821.72;;;34.68;23.06
72370;BME280;60343;-32.030;115.880;2023-11-19T02:01:26;101817.59;;;34.79;23.16
72370;BME280;60343;-32.030;115.880;2023-11-19T02:04:06;101817.25;;;34.67;23.13
72370;BME280;60343;-32.030;115.880;2023-11-19T02:06:50;101818.19;;;34.49;22.62
72370;BME280;60343;-32.030;115.880;2023-11-19T02:09:26;101815.50;;;34.58;23.88
72370;BME280;60343;-32.030;115.880;2023-11-19T02:12:02;101810.59;;;34.68;24.03
72370;BME280;60343;-32.030;115.880;2023-11-19T02:14:39;101809.47;;;34.69;22.88
72370;BME280;60343;-32.030;115.880;2023-11-19T02:17:27;101800.47;;;34.45;23.98
72370;BME280;60343;-32.030;115.880;2023-11-19T02:20:02;101799.22;;;34.51;23.68
72370;BME280;60343;-32.030;115.880;2023-11-19T02:22:49;101792.03;;;34.50;23.59
72370;BME280;60343;-32.030;115.880;2023-11-19T02:25:28;101801.50;;;34.49;24.01
72370;BME280;60343;-32.030;115.880;2023-11-19T02:28:10;101787.41;;;34.45;24.31
72370;BME280;60343;-32.030;115.880;2023-11-19T02:30:46;101794.91;;;34.59;24.70
72370;BME280;60343;-32.030;115.880;2023-11-19T02:33:21;101793.69;;;34.78;23.94
72370;BME280;60343;-32.030;115.880;2023-11-19T02:35:57;101781.69;;;34.92;23.74
72370;BME280;60343;-32.030;115.880;2023-11-19T02:38:32;101781.50;;;34.88;22.64
72370;BME280;60343;-32.030;115.880;2023-11-19T02:41:08;101786.09;;;35.06;23.12
72370;BME280;60343;-32.030;115.880;2023-11-19T02:43:49;101772.53;;;35.27;23.03
72370;BME280;60343;-32.030;115.880;2023-11-19T02:46:25;101771.91;;;35.52;21.97
72370;BME280;60343;-32.030;115.880;2023-11-19T02:49:00;101767.34;;;35.56;20.68
72370;BME280;60343;-32.030;115.880;2023-11-19T02:51:35;101762.59;;;35.57;21.78
72370;BME280;60343;-32.030;115.880;2023-11-19T02:54:11;101768.19;;;35.57;22.00
72370;BME280;60343;-32.030;115.880;2023-11-19T02:56:46;101768.31;;;35.52;21.70
72370;BME280;60343;-32.030;115.880;2023-11-19T02:59:33;101767.00;;;35.49;22.46
72370;BME280;60343;-32.030;115.880;2023-11-19T03:02:10;101759.00;;;35.56;21.88
72370;BME280;60343;-32.030;115.880;2023-11-19T03:04:46;101758.19;;;35.78;21.98
72370;BME280;60343;-32.030;115.880;2023-11-19T03:07:21;101750.94;;;35.99;20.94
72370;BME280;60343;-32.030;115.880;2023-11-19T03:09:56;101754.56;;;36.08;19.96
72370;BME280;60343;-32.030;115.880;2023-11-19T03:12:33;101753.44;;;36.09;20.42
72370;BME280;60343;-32.030;115.880;2023-11-19T03:15:14;101754.84;;;36.21;22.22
72370;BME280;60343;-32.030;115.880;2023-11-19T03:17:51;101748.00;;;36.35;24.35
72370;BME280;60343;-32.030;115.880;2023-11-19T03:20:26;101743.69;;;36.21;22.25
72370;BME280;60343;-32.030;115.880;2023-11-19T03:23:02;101734.19;;;36.30;23.10
72370;BME280;60343;-32.030;115.880;2023-11-19T03:25:37;101736.47;;;36.28;24.95
72370;BME280;60343;-32.030;115.880;2023-11-19T03:28:13;101742.16;;;36.15;24.58
72370;BME280;60343;-32.030;115.880;2023-11-19T03:30:54;101737.94;;;36.26;24.95
72370;BME280;60343;-32.030;115.880;2023-11-19T03:33:31;101733.69;;;36.28;24.32
72370;BME280;60343;-32.030;115.880;2023-11-19T03:36:07;101722.34;;;36.25;25.57
72370;BME280;60343;-32.030;115.880;2023-11-19T03:38:43;101714.56;;;36.13;25.56
72370;BME280;60343;-32.030;115.880;2023-11-19T03:41:18;101721.91;;;36.00;26.24
72370;BME280;60343;-32.030;115.880;2023-11-19T03:43:54;101721.72;;;35.97;25.25
72370;BME280;60343;-32.030;115.880;2023-11-19T03:46:35;101719.94;;;36.01;25.80
72370;BME280;60343;-32.030;115.880;2023-11-19T03:49:11;101712.56;;;36.05;24.18
72370;BME280;60343;-32.030;115.880;2023-11-19T03:51:46;101718.56;;;36.21;23.94
72370;BME280;60343;-32.030;115.880;2023-11-19T03:54:21;101717.19;;;36.09;23.52
72370;BME280;60343;-32.030;115.880;2023-11-19T03:56:56;101714.03;;;36.02;23.07
72370;BME280;60343;-32.030;115.880;2023-11-19T03:59:31;101706.78;;;35.93;23.67
72370;BME280;60343;-32.030;115.880;2023-11-19T04:02:13;101705.66;;;36.02;24.05
72370;BME280;60343;-32.030;115.880;2023-11-19T04:04:48;101701.66;;;36.17;24.28
72370;BME280;60343;-32.030;115.880;2023-11-19T04:07:23;101704.50;;;36.43;22.52
72370;BME280;60343;-32.030;115.880;2023-11-19T04:09:59;101688.44;;;36.57;22.70
72370;BME280;60343;-32.030;115.880;2023-11-19T04:12:36;101689.00;;;36.85;23.71
72370;BME280;60343;-32.030;115.880;2023-11-19T04:15:12;101689.84;;;37.20;23.59
72370;BME280;60343;-32.030;115.880;2023-11-19T04:17:53;101680.13;;;37.26;22.22
72370;BME280;60343;-32.030;115.880;2023-11-19T04:20:28;101678.81;;;37.23;22.51
72370;BME280;60343;-32.030;115.880;2023-11-19T04:23:04;101674.19;;;37.27;22.23
72370;BME280;60343;-32.030;115.880;2023-11-19T04:25:39;101678.00;;;36.97;23.89
72370;BME280;60343;-32.030;115.880;2023-11-19T04:28:14;101678.84;;;37.15;23.13
72370;BME280;60343;-32.030;115.880;2023-11-19T04:30:49;101670.75;;;37.05;22.36
72370;BME280;60343;-32.030;115.880;2023-11-19T04:33:30;101663.88;;;36.85;22.87
72370;BME280;60343;-32.030;115.880;2023-11-19T04:36:06;101663.41;;;36.91;23.50
72370;BME280;60343;-32.030;115.880;2023-11-19T04:38:42;101677.50;;;36.95;23.61
72370;BME280;60343;-32.030;115.880;2023-11-19T04:41:17;101677.84;;;36.85;22.30
72370;BME280;60343;-32.030;115.880;2023-11-19T04:43:52;101666.84;;;36.97;23.42
72370;BME280;60343;-32.030;115.880;2023-11-19T04:46:29;101667.34;;;37.16;23.73
72370;BME280;60343;-32.030;115.880;2023-11-19T04:49:10;101666.38;;;37.12;24.53
72370;BME280;60343;-32.030;115.880;2023-11-19T04:51:46;101662.56;;;36.91;23.75
72370;BME280;60343;-32.030;115.880;2023-11-19T04:54:23;101658.94;;;37.08;24.38
72370;BME280;60343;-32.030;115.880;2023-11-19T04:57:00;101666.66;;;37.19;24.30
72370;BME280;60343;-32.030;115.880;2023-11-19T04:59:36;101658.63;;;37.26;23.24
72370;BME280;60343;-32.030;115.880;2023-11-19T05:02:13;101661.59;;;37.21;22.89
72370;BME280;60343;-32.030;115.880;2023-11-19T05:04:54;101664.78;;;37.49;23.16
72370;BME280;60343;-32.030;115.880;2023-11-19T05:07:30;101661.00;;;37.62;22.91
72370;BME280;60343;-32.030;115.880;2023-11-19T05:10:06;101668.13;;;37.34;21.78
72370;BME280;60343;-32.030;115.880;2023-11-19T05:12:41;101660.06;;;37.32;21.76
72370;BME280;60343;-32.030;115.880;2023-11-19T05:15:16;101662.22;;;37.01;21.45
72370;BME280;60343;-32.030;115.880;2023-11-19T05:17:52;101656.31;;;36.68;22.14
72370;BME280;60343;-32.030;115.880;2023-11-19T05:20:33;101654.81;;;36.53;22.00
72370;BME280;60343;-32.030;115.880;2023-11-19T05:23:08;101652.22;;;36.83;22.62
72370;BME280;60343;-32.030;115.880;2023-11-19T05:25:44;101659.78;;;36.74;22.00
72370;BME280;60343;-32.030;115.880;2023-11-19T05:28:20;101655.84;;;36.75;20.56
72370;BME280;60343;-32.030;115.880;2023-11-19T05:30:55;101645.81;;;36.82;20.47
72370;BME280;60343;-32.030;115.880;2023-11-19T05:33:30;101639.91;;;37.10;20.83
72370;BME280;60343;-32.030;115.880;2023-11-19T05:36:13;101645.97;;;36.94;20.45
72370;BME280;60343;-32.030;115.880;2023-11-19T05:38:49;101645.31;;;36.80;20.19
72370;BME280;60343;-32.030;115.880;2023-11-19T05:41:24;101638.09;;;36.71;20.64
72370;BME280;60343;-32.030;115.880;2023-11-19T05:43:59;101644.16;;;36.73;20.35
72370;BME280;60343;-32.030;115.880;2023-11-19T05:46:34;101645.59;;;36.53;20.38
72370;BME280;60343;-32.030;115.880;2023-11-19T05:49:12;101641.50;;;36.50;20.35
72370;BME280;60343;-32.030;115.880;2023-11-19T05:51:53;101642.81;;;36.53;20.06
72370;BME280;60343;-32.030;115.880;2023-11-19T05:54:30;101636.63;;;36.73;19.87
72370;BME280;60343;-32.030;115.880;2023-11-19T05:57:06;101639.03;;;36.58;19.83
72370;BME280;60343;-32.030;115.880;2023-11-19T05:59:42;101632.16;;;36.46;19.32
72370;BME280;60343;-32.030;115.880;2023-11-19T06:02:18;101629.22;;;36.77;19.21
72370;BME280;60343;-32.030;115.880;2023-11-19T06:04:55;101629.38;;;36.98;19.68
72370;BME280;60343;-32.030;115.880;2023-11-19T06:07:36;101625.91;;;37.18;20.44
72370;BME280;60343;-32.030;115.880;2023-11-19T06:10:14;101632.19;;;37.15;21.00
72370;BME280;60343;-32.030;115.880;2023-11-19T06:12:49;101627.25;;;36.95;18.70
72370;BME280;60343;-32.030;115.880;2023-11-19T06:15:25;101632.19;;;36.81;18.46
72370;BME280;60343;-32.030;115.880;2023-11-19T06:18:00;101631.53;;;36.84;18.20
72370;BME280;60343;-32.030;115.880;2023-11-19T06:20:36;101630.47;;;36.37;18.20
72370;BME280;60343;-32.030;115.880;2023-11-19T06:23:17;101632.94;;;36.30;18.43
72370;BME280;60343;-32.030;115.880;2023-11-19T06:25:52;101631.97;;;36.43;18.79
72370;BME280;60343;-32.030;115.880;2023-11-19T06:28:27;101628.38;;;36.51;18.47
72370;BME280;60343;-32.030;115.880;2023-11-19T06:31:02;101630.22;;;35.59;18.64
72370;BME280;60343;-32.030;115.880;2023-11-19T06:33:38;101617.47;;;35.14;19.65
72370;BME280;60343;-32.030;115.880;2023-11-19T06:36:15;101624.06;;;35.40;20.12
72370;BME280;60343;-32.030;115.880;2023-11-19T06:38:56;101623.88;;;35.67;20.09
72370;BME280;60343;-32.030;115.880;2023-11-19T06:41:31;101623.28;;;35.79;19.34
72370;BME280;60343;-32.030;115.880;2023-11-19T06:44:07;101619.22;;;35.94;20.37
72370;BME280;60343;-32.030;115.880;2023-11-19T06:46:42;101622.53;;;35.96;20.27
72370;BME280;60343;-32.030;115.880;2023-11-19T06:49:17;101604.88;;;35.69;21.00
72370;BME280;60343;-32.030;115.880;2023-11-19T06:51:52;101611.66;;;35.86;22.03
72370;BME280;60343;-32.030;115.880;2023-11-19T06:54:33;101606.91;;;35.86;22.07
72370;BME280;60343;-32.030;115.880;2023-11-19T06:57:08;101610.06;;;35.32;22.28
72370;BME280;60343;-32.030;115.880;2023-11-19T06:59:43;101604.13;;;35.02;23.54
72370;BME280;60343;-32.030;115.880;2023-11-19T07:02:19;101606.88;;;34.58;22.80
72370;BME280;60343;-32.030;115.880;2023-11-19T07:04:55;101607.50;;;33.78;22.58
72370;BME280;60343;-32.030;115.880;2023-11-19T07:07:32;101618.84;;;33.35;24.64
72370;BME280;60343;-32.030;115.880;2023-11-19T07:10:14;101606.97;;;33.16;26.06
72370;BME280;60343;-32.030;115.880;2023-11-19T07:12:49;101600.00;;;33.00;25.87
72370;BME280;60343;-32.030;115.880;2023-11-19T07:15:24;101600.25;;;32.85;26.55
72370;BME280;60343;-32.030;115.880;2023-11-19T07:18:00;101600.75;;;32.73;24.70
72370;BME280;60343;-32.030;115.880;2023-11-19T07:20:35;101604.53;;;32.40;26.51
72370;BME280;60343;-32.030;115.880;2023-11-19T07:23:10;101598.41;;;32.24;26.67
72370;BME280;60343;-32.030;115.880;2023-11-19T07:25:52;101594.97;;;32.08;26.63
72370;BME280;60343;-32.030;115.880;2023-11-19T07:28:27;101603.53;;;31.88;27.11
72370;BME280;60343;-32.030;115.880;2023-11-19T07:31:04;101611.44;;;31.76;27.60
72370;BME280;60343;-32.030;115.880;2023-11-19T07:33:41;101612.78;;;31.49;28.25
72370;BME280;60343;-32.030;115.880;2023-11-19T07:36:17;101609.09;;;31.30;28.99
72370;BME280;60343;-32.030;115.880;2023-11-19T07:38:52;101605.97;;;31.42;29.18
72370;BME280;60343;-32.030;115.880;2023-11-19T07:41:33;101602.59;;;31.45;29.15
72370;BME280;60343;-32.030;115.880;2023-11-19T07:44:10;101599.06;;;31.10;28.38
72370;BME280;60343;-32.030;115.880;2023-11-19T07:46:47;101608.31;;;30.91;29.46
72370;BME280;60343;-32.030;115.880;2023-11-19T07:49:22;101605.38;;;30.82;29.24
72370;BME280;60343;-32.030;115.880;2023-11-19T07:52:00;101597.47;;;30.65;29.95
72370;BME280;60343;-32.030;115.880;2023-11-19T07:54:35;101602.72;;;30.67;29.78
72370;BME280;60343;-32.030;115.880;2023-11-19T07:57:17;101602.72;;;30.67;29.34
72370;BME280;60343;-32.030;115.880;2023-11-19T07:59:52;101601.09;;;30.61;29.11
72370;BME280;60343;-32.030;115.880;2023-11-19T08:02:29;101597.72;;;30.64;28.89
72370;BME280;60343;-32.030;115.880;2023-11-19T08:05:04;101603.50;;;30.73;28.66
72370;BME280;60343;-32.030;115.880;2023-11-19T08:07:39;101595.22;;;30.73;28.74
72370;BME280;60343;-32.030;115.880;2023-11-19T08:10:15;101608.72;;;30.74;29.12
72370;BME280;60343;-32.030;115.880;2023-11-19T08:12:56;101597.38;;;30.76;29.54
72370;BME280;60343;-32.030;115.880;2023-11-19T08:15:31;101603.06;;;30.89;28.95
72370;BME280;60343;-32.030;115.880;2023-11-19T08:18:08;101596.63;;;30.99;28.64
72370;BME280;60343;-32.030;115.880;2023-11-19T08:20:43;101601.09;;;30.95;28.29
72370;BME280;60343;-32.030;115.880;2023-11-19T08:23:21;101589.47;;;30.98;28.21
72370;BME280;60343;-32.030;115.880;2023-11-19T08:25:56;101596.94;;;31.02;28.50
72370;BME280;60343;-32.030;115.880;2023-11-19T08:28:38;101583.53;;;31.15;27.99
72370;BME280;60343;-32.030;115.880;2023-11-19T08:31:14;101595.66;;;31.19;27.52
72370;BME280;60343;-32.030;115.880;2023-11-19T08:33:49;101601.91;;;31.29;28.10
72370;BME280;60343;-32.030;115.880;2023-11-19T08:36:24;101602.00;;;31.19;28.64
72370;BME280;60343;-32.030;115.880;2023-11-19T08:38:59;101596.56;;;31.09;28.66
72370;BME280;60343;-32.030;115.880;2023-11-19T08:41:36;101594.50;;;30.91;28.58
72370;BME280;60343;-32.030;115.880;2023-11-19T08:44:17;101590.66;;;30.87;28.68
72370;BME280;60343;-32.030;115.880;2023-11-19T08:46:53;101595.59;;;30.90;28.69
72370;BME280;60343;-32.030;115.880;2023-11-19T08:49:28;101601.69;;;30.92;28.74
72370;BME280;60343;-32.030;115.880;2023-11-19T08:52:03;101602.22;;;30.94;28.65
72370;BME280;60343;-32.030;115.880;2023-11-19T08:54:38;101602.75;;;30.96;28.74
72370;BME280;60343;-32.030;115.880;2023-11-19T08:57:17;101605.25;;;30.97;29.48
72370;BME280;60343;-32.030;115.880;2023-11-19T08:59:58;101604.91;;;31.04;29.22
72370;BME280;60343;-32.030;115.880;2023-11-19T09:02:35;101608.53;;;30.99;28.94
72370;BME280;60343;-32.030;115.880;2023-11-19T09:05:12;101605.00;;;30.89;29.56
72370;BME280;60343;-32.030;115.880;2023-11-19T09:07:49;101605.59;;;30.86;29.23
72370;BME280;60343;-32.030;115.880;2023-11-19T09:10:24;101600.16;;;30.76;29.58
72370;BME280;60343;-32.030;115.880;2023-11-19T09:13:00;101603.03;;;30.60;31.21
72370;BME280;60343;-32.030;115.880;2023-11-19T09:15:41;101610.78;;;30.53;32.31
72370;BME280;60343;-32.030;115.880;2023-11-19T09:18:16;101613.09;;;30.36;33.20
72370;BME280;60343;-32.030;115.880;2023-11-19T09:20:52;101614.25;;;30.25;33.71
72370;BME280;60343;-32.030;115.880;2023-11-19T09:23:27;101612.03;;;30.27;34.52
72370;BME280;60343;-32.030;115.880;2023-11-19T09:26:08;101622.03;;;30.18;33.53
72370;BME280;60343;-32.030;115.880;2023-11-19T09:28:43;101623.44;;;30.10;34.65
72370;BME280;60343;-32.030;115.880;2023-11-19T09:31:24;101625.97;;;30.02;36.16
72370;BME280;60343;-32.030;115.880;2023-11-19T09:34:00;101627.66;;;29.98;37.36
72370;BME280;60343;-32.030;115.880;2023-11-19T09:36:35;101627.94;;;29.96;37.25
72370;BME280;60343;-32.030;115.880;2023-11-19T09:39:11;101641.47;;;29.88;36.19
72370;BME280;60343;-32.030;115.880;2023-11-19T09:41:49;101636.22;;;29.81;36.54
72370;BME280;60343;-32.030;115.880;2023-11-19T09:44:26;101639.84;;;29.71;36.95
72370;BME280;60343;-32.030;115.880;2023-11-19T09:47:07;101640.13;;;29.70;36.67
72370;BME280;60343;-32.030;115.880;2023-11-19T09:49:43;101640.13;;;29.60;37.25
72370;BME280;60343;-32.030;115.880;2023-11-19T09:52:18;101646.75;;;29.59;36.20
72370;BME280;60343;-32.030;115.880;2023-11-19T09:54:53;101651.19;;;29.50;35.51
72370;BME280;60343;-32.030;115.880;2023-11-19T09:57:32;101648.72;;;29.33;34.78
72370;BME280;60343;-32.030;115.880;2023-11-19T10:00:08;101649.25;;;29.25;34.48
72370;BME280;60343;-32.030;115.880;2023-11-19T10:02:51;101643.75;;;29.15;35.00
72370;BME280;60343;-32.030;115.880;2023-11-19T10:05:26;101642.91;;;29.04;35.11
72370;BME280;60343;-32.030;115.880;2023-11-19T10:08:03;101650.91;;;28.95;35.84
72370;BME280;60343;-32.030;115.880;2023-11-19T10:10:38;101649.22;;;28.74;36.84
72370;BME280;60343;-32.030;115.880;2023-11-19T10:13:14;101651.09;;;28.64;37.48
72370;BME280;60343;-32.030;115.880;2023-11-19T10:15:50;101654.63;;;28.44;37.35
72370;BME280;60343;-32.030;115.880;2023-11-19T10:18:33;101661.72;;;28.25;37.44
72370;BME280;60343;-32.030;115.880;2023-11-19T10:21:13;101660.59;;;28.21;37.93
72370;BME280;60343;-32.030;115.880;2023-11-19T10:23:51;101663.50;;;27.99;38.84
72370;BME280;60343;-32.030;115.880;2023-11-19T10:26:28;101670.88;;;27.93;40.25
72370;BME280;60343;-32.030;115.880;2023-11-19T10:29:03;101667.47;;;27.71;40.45
72370;BME280;60343;-32.030;115.880;2023-11-19T10:31:39;101673.72;;;27.61;40.39
72370;BME280;60343;-32.030;115.880;2023-11-19T10:34:28;101679.97;;;27.52;40.73
72370;BME280;60343;-32.030;115.880;2023-11-19T10:37:07;101680.66;;;27.37;41.35
72370;BME280;60343;-32.030;115.880;2023-11-19T10:39:55;101686.94;;;27.32;41.67
72370;BME280;60343;-32.030;115.880;2023-11-19T10:42:32;101684.38;;;27.21;42.03
72370;BME280;60343;-32.030;115.880;2023-11-19T10:45:22;101687.59;;;27.13;42.50
72370;BME280;60343;-32.030;115.880;2023-11-19T10:47:58;101692.25;;;26.85;43.08
72370;BME280;60343;-32.030;115.880;2023-11-19T10:50:41;101690.31;;;26.86;43.35
72370;BME280;60343;-32.030;115.880;2023-11-19T10:53:18;101700.59;;;26.69;44.25
72370;BME280;60343;-32.030;115.880;2023-11-19T10:55:55;101691.91;;;26.55;45.07
72370;BME280;60343;-32.030;115.880;2023-11-19T10:58:33;101709.09;;;26.45;45.83
72370;BME280;60343;-32.030;115.880;2023-11-19T11:01:16;101703.56;;;26.40;47.07
72370;BME280;60343;-32.030;115.880;2023-11-19T11:03:54;101710.16;;;26.23;47.99
72370;BME280;60343;-32.030;115.880;2023-11-19T11:06:36;101709.69;;;26.09;48.57
72370;BME280;60343;-32.030;115.880;2023-11-19T11:09:12;101707.28;;;25.96;48.97
72370;BME280;60343;-32.030;115.880;2023-11-19T11:11:49;101711.00;;;25.85;49.32
72370;BME280;60343;-32.030;115.880;2023-11-19T11:14:25;101712.00;;;25.79;50.30
72370;BME280;60343;-32.030;115.880;2023-11-19T11:17:03;101724.88;;;25.61;50.62
72370;BME280;60343;-32.030;115.880;2023-11-19T11:19:40;101726.34;;;25.52;50.97
72370;BME280;60343;-32.030;115.880;2023-11-19T11:22:23;101724.84;;;25.45;51.73
72370;BME280;60343;-32.030;115.880;2023-11-19T11:25:10;101720.69;;;25.42;52.16
72370;BME280;60343;-32.030;115.880;2023-11-19T11:28:03;101722.19;;;25.33;52.68
72370;BME280;60343;-32.030;115.880;2023-11-19T11:30:52;101726.00;;;25.32;53.51
72370;BME280;60343;-32.030;115.880;2023-11-19T11:33:44;101721.75;;;25.25;54.02
72370;BME280;60343;-32.030;115.880;2023-11-19T11:36:28;101730.94;;;25.02;55.07
72370;BME280;60343;-32.030;115.880;2023-11-19T11:39:11;101733.00;;;24.95;55.59
72370;BME280;60343;-32.030;115.880;2023-11-19T11:41:47;101730.84;;;24.85;56.38
72370;BME280;60343;-32.030;115.880;2023-11-19T11:44:59;101726.94;;;24.81;56.96
72370;BME280;60343;-32.030;115.880;2023-11-19T11:50:49;101728.63;;;24.70;57.55
72370;BME280;60343;-32.030;115.880;2023-11-19T11:53:26;101733.22;;;24.53;58.15
72370;BME280;60343;-32.030;115.880;2023-11-19T11:56:09;101733.97;;;24.49;58.34
72370;BME280;60343;-32.030;115.880;2023-11-19T11:58:44;101738.50;;;24.43;58.80
72370;BME280;60343;-32.030;115.880;2023-11-19T12:01:23;101735.66;;;24.38;58.98
72370;BME280;60343;-32.030;115.880;2023-11-19T12:04:02;101740.84;;;24.40;59.17
72370;BME280;60343;-32.030;115.880;2023-11-19T12:06:39;101733.25;;;24.30;59.53
72370;BME280;60343;-32.030;115.880;2023-11-19T12:09:15;101735.16;;;24.29;59.59
72370;BME280;60343;-32.030;115.880;2023-11-19T12:12:17;101735.41;;;24.16;59.99
72370;BME280;60343;-32.030;115.880;2023-11-19T12:15:07;101741.38;;;24.02;60.24
72370;BME280;60343;-32.030;115.880;2023-11-19T12:17:50;101739.44;;;23.90;60.61
72370;BME280;60343;-32.030;115.880;2023-11-19T12:20:27;101745.88;;;23.84;60.91
72370;BME280;60343;-32.030;115.880;2023-11-19T12:23:06;101745.53;;;23.81;61.11
72370;BME280;60343;-32.030;115.880;2023-11-19T12:25:41;101752.88;;;23.80;61.08
72370;BME280;60343;-32.030;115.880;2023-11-19T12:28:23;101751.09;;;23.74;60.97
72370;BME280;60343;-32.030;115.880;2023-11-19T12:31:09;101749.91;;;23.70;61.31
72370;BME280;60343;-32.030;115.880;2023-11-19T12:33:46;101750.84;;;23.64;61.59
72370;BME280;60343;-32.030;115.880;2023-11-19T12:36:22;101756.31;;;23.64;61.41
72370;BME280;60343;-32.030;115.880;2023-11-19T12:38:58;101756.66;;;23.56;61.67
72370;BME280;60343;-32.030;115.880;2023-11-19T12:41:33;101760.34;;;23.50;61.83
72370;BME280;60343;-32.030;115.880;2023-11-19T12:44:30;101750.72;;;23.59;61.44
72370;BME280;60343;-32.030;115.880;2023-11-19T12:47:06;101754.53;;;23.58;61.29
72370;BME280;60343;-32.030;115.880;2023-11-19T12:49:42;101758.31;;;23.45;61.51
72370;BME280;60343;-32.030;115.880;2023-11-19T12:52:18;101758.38;;;23.39;61.65
72370;BME280;60343;-32.030;115.880;2023-11-19T12:54:53;101763.16;;;23.43;61.99
72370;BME280;60343;-32.030;115.880;2023-11-19T12:57:39;101768.44;;;23.57;61.61
72370;BME280;60343;-32.030;115.880;2023-11-19T13:00:26;101770.81;;;23.65;60.97
72370;BME280;60343;-32.030;115.880;2023-11-19T13:03:02;101773.91;;;23.57;61.45
72370;BME280;60343;-32.030;115.880;2023-11-19T13:05:38;101771.25;;;23.50;61.75
72370;BME280;60343;-32.030;115.880;2023-11-19T13:08:13;101770.69;;;23.48;61.73
72370;BME280;60343;-32.030;115.880;2023-11-19T13:10:53;101775.72;;;23.33;62.04
72370;BME280;60343;-32.030;115.880;2023-11-19T13:13:29;101777.97;;;23.36;62.30
72370;BME280;60343;-32.030;115.880;2023-11-19T13:16:11;101771.66;;;23.24;62.89